Terminal Aerodrome Forecast
Issued by NWS Tulsa, OK

Home | Current Version | Previous Version | Text Only | Print | Product List | Glossary On
Versions: 1 2 3 4 5 6 7 8 9 10 11 12 13 14 15 16 17 18 19 20
000
FTUS44 KTSA 312118 AAD
TAFTUL
TAF AMD
KTUL 312118Z 3121/0118 04010KT P6SM FEW040 BKN070
      TEMPO 3121/3122 4SM -RA BKN035
     FM312200 02004KT P6SM OVC100
     FM010200 02006KT P6SM BKN040=

USA.gov is the U.S. government's official web portal to all federal, state and local government web resources and services.